sensor_id;sensor_type;location;lat;lon;timestamp;P1;durP1;ratioP1;P2;durP2;ratioP2
24761;SDS011;12865;51.934;10.330;2023-06-10T00:02:19;7.10;;;6.32;;
24761;SDS011;12865;51.934;10.330;2023-06-10T00:05:05;6.95;;;5.13;;
24761;SDS011;12865;51.934;10.330;2023-06-10T00:07:53;7.88;;;5.53;;
24761;SDS011;12865;51.934;10.330;2023-06-10T00:10:40;7.50;;;5.60;;
24761;SDS011;12865;51.934;10.330;2023-06-10T00:13:26;8.32;;;6.35;;
24761;SDS011;12865;51.934;10.330;2023-06-10T00:16:11;7.55;;;5.90;;
24761;SDS011;12865;51.934;10.330;2023-06-10T00:18:58;8.27;;;5.78;;
24761;SDS011;12865;51.934;10.330;2023-06-10T00:21:46;8.60;;;5.97;;
24761;SDS011;12865;51.934;10.330;2023-06-10T00:24:32;6.70;;;6.00;;
24761;SDS011;12865;51.934;10.330;2023-06-10T00:27:18;7.78;;;5.82;;
24761;SDS011;12865;51.934;10.330;2023-06-10T00:30:04;7.70;;;5.72;;
24761;SDS011;12865;51.934;10.330;2023-06-10T00:32:52;9.00;;;6.27;;
24761;SDS011;12865;51.934;10.330;2023-06-10T00:35:37;7.90;;;6.53;;
24761;SDS011;12865;51.934;10.330;2023-06-10T00:38:23;10.15;;;6.60;;
24761;SDS011;12865;51.934;10.330;2023-06-10T00:41:09;8.10;;;5.72;;
24761;SDS011;12865;51.934;10.330;2023-06-10T00:43:54;6.53;;;5.57;;
24761;SDS011;12865;51.934;10.330;2023-06-10T00:46:40;8.98;;;6.13;;
24761;SDS011;12865;51.934;10.330;2023-06-10T00:49:26;10.82;;;6.05;;
24761;SDS011;12865;51.934;10.330;2023-06-10T00:52:12;9.00;;;6.00;;
24761;SDS011;12865;51.934;10.330;2023-06-10T00:54:59;6.20;;;5.43;;
24761;SDS011;12865;51.934;10.330;2023-06-10T00:57:46;8.35;;;5.90;;
24761;SDS011;12865;51.934;10.330;2023-06-10T01:00:33;6.43;;;5.72;;
24761;SDS011;12865;51.934;10.330;2023-06-10T01:03:19;6.80;;;5.45;;
24761;SDS011;12865;51.934;10.330;2023-06-10T01:15:12;7.10;;;6.40;;
24761;SDS011;12865;51.934;10.330;2023-06-10T01:18:05;9.30;;;5.63;;
24761;SDS011;12865;51.934;10.330;2023-06-10T01:20:54;8.88;;;6.22;;
24761;SDS011;12865;51.934;10.330;2023-06-10T01:23:41;6.80;;;6.10;;
24761;SDS011;12865;51.934;10.330;2023-06-10T01:26:30;7.97;;;5.55;;
24761;SDS011;12865;51.934;10.330;2023-06-10T01:29:18;10.32;;;7.15;;
24761;SDS011;12865;51.934;10.330;2023-06-10T01:32:21;7.22;;;6.50;;
24761;SDS011;12865;51.934;10.330;2023-06-10T01:35:12;9.02;;;7.05;;
24761;SDS011;12865;51.934;10.330;2023-06-10T01:37:59;7.82;;;6.68;;
24761;SDS011;12865;51.934;10.330;2023-06-10T01:40:48;9.20;;;6.60;;
24761;SDS011;12865;51.934;10.330;2023-06-10T01:43:34;9.00;;;6.68;;
24761;SDS011;12865;51.934;10.330;2023-06-10T01:46:22;7.50;;;6.28;;
24761;SDS011;12865;51.934;10.330;2023-06-10T01:49:08;5.80;;;5.25;;
24761;SDS011;12865;51.934;10.330;2023-06-10T01:51:53;6.57;;;5.88;;
24761;SDS011;12865;51.934;10.330;2023-06-10T01:54:39;9.55;;;5.82;;
24761;SDS011;12865;51.934;10.330;2023-06-10T01:57:25;9.27;;;5.88;;
24761;SDS011;12865;51.934;10.330;2023-06-10T02:00:11;9.27;;;6.88;;
24761;SDS011;12865;51.934;10.330;2023-06-10T02:02:57;7.70;;;6.13;;
24761;SDS011;12865;51.934;10.330;2023-06-10T02:05:43;6.90;;;6.20;;
24761;SDS011;12865;51.934;10.330;2023-06-10T02:08:28;6.93;;;6.20;;
24761;SDS011;12865;51.934;10.330;2023-06-10T02:11:14;7.40;;;5.68;;
24761;SDS011;12865;51.934;10.330;2023-06-10T02:14:00;7.40;;;5.85;;
24761;SDS011;12865;51.934;10.330;2023-06-10T02:16:45;7.50;;;5.65;;
24761;SDS011;12865;51.934;10.330;2023-06-10T02:19:32;9.35;;;6.32;;
24761;SDS011;12865;51.934;10.330;2023-06-10T02:22:21;8.35;;;6.20;;
24761;SDS011;12865;51.934;10.330;2023-06-10T02:25:08;6.85;;;5.70;;
24761;SDS011;12865;51.934;10.330;2023-06-10T02:27:54;6.78;;;5.72;;
24761;SDS011;12865;51.934;10.330;2023-06-10T02:30:43;8.65;;;6.25;;
24761;SDS011;12865;51.934;10.330;2023-06-10T02:33:28;10.43;;;6.47;;
24761;SDS011;12865;51.934;10.330;2023-06-10T02:36:14;9.48;;;6.40;;
24761;SDS011;12865;51.934;10.330;2023-06-10T02:39:01;7.75;;;6.35;;
24761;SDS011;12865;51.934;10.330;2023-06-10T02:41:48;6.75;;;6.15;;
24761;SDS011;12865;51.934;10.330;2023-06-10T02:44:33;7.63;;;6.03;;
24761;SDS011;12865;51.934;10.330;2023-06-10T02:47:19;7.53;;;6.80;;
24761;SDS011;12865;51.934;10.330;2023-06-10T02:50:05;7.75;;;6.35;;
24761;SDS011;12865;51.934;10.330;2023-06-10T02:52:51;9.88;;;6.90;;
24761;SDS011;12865;51.934;10.330;2023-06-10T02:55:37;7.65;;;6.85;;
24761;SDS011;12865;51.934;10.330;2023-06-10T02:58:23;10.05;;;6.88;;
24761;SDS011;12865;51.934;10.330;2023-06-10T03:01:09;8.25;;;6.70;;
24761;SDS011;12865;51.934;10.330;2023-06-10T03:03:55;6.97;;;6.20;;
24761;SDS011;12865;51.934;10.330;2023-06-10T03:06:41;7.90;;;5.85;;
24761;SDS011;12865;51.934;10.330;2023-06-10T03:09:27;9.55;;;5.80;;
24761;SDS011;12865;51.934;10.330;2023-06-10T03:12:13;9.40;;;6.32;;
24761;SDS011;12865;51.934;10.330;2023-06-10T03:14:58;10.20;;;6.38;;
24761;SDS011;12865;51.934;10.330;2023-06-10T03:17:44;8.20;;;5.78;;
24761;SDS011;12865;51.934;10.330;2023-06-10T03:20:30;7.75;;;6.20;;
24761;SDS011;12865;51.934;10.330;2023-06-10T03:23:16;8.93;;;5.78;;
24761;SDS011;12865;51.934;10.330;2023-06-10T03:26:02;7.22;;;6.10;;
24761;SDS011;12865;51.934;10.330;2023-06-10T03:28:47;6.57;;;5.68;;
24761;SDS011;12865;51.934;10.330;2023-06-10T03:31:33;7.93;;;6.03;;
24761;SDS011;12865;51.934;10.330;2023-06-10T03:34:22;9.10;;;6.32;;
24761;SDS011;12865;51.934;10.330;2023-06-10T03:37:08;7.20;;;5.53;;
24761;SDS011;12865;51.934;10.330;2023-06-10T03:39:54;6.65;;;5.63;;
24761;SDS011;12865;51.934;10.330;2023-06-10T03:42:40;6.35;;;5.65;;
24761;SDS011;12865;51.934;10.330;2023-06-10T03:45:25;9.88;;;5.75;;
24761;SDS011;12865;51.934;10.330;2023-06-10T03:48:13;11.48;;;6.63;;
24761;SDS011;12865;51.934;10.330;2023-06-10T03:50:59;6.82;;;6.07;;
24761;SDS011;12865;51.934;10.330;2023-06-10T03:53:44;9.75;;;6.28;;
24761;SDS011;12865;51.934;10.330;2023-06-10T03:56:30;7.47;;;6.50;;
24761;SDS011;12865;51.934;10.330;2023-06-10T03:59:17;7.20;;;5.68;;
24761;SDS011;12865;51.934;10.330;2023-06-10T04:02:02;9.23;;;6.00;;
24761;SDS011;12865;51.934;10.330;2023-06-10T04:04:50;9.95;;;6.32;;
24761;SDS011;12865;51.934;10.330;2023-06-10T04:07:36;8.73;;;5.78;;
24761;SDS011;12865;51.934;10.330;2023-06-10T04:10:22;6.75;;;5.70;;
24761;SDS011;12865;51.934;10.330;2023-06-10T04:13:07;8.23;;;6.18;;
24761;SDS011;12865;51.934;10.330;2023-06-10T04:15:54;11.93;;;6.43;;
24761;SDS011;12865;51.934;10.330;2023-06-10T04:18:39;11.55;;;6.57;;
24761;SDS011;12865;51.934;10.330;2023-06-10T04:21:27;9.40;;;6.18;;
24761;SDS011;12865;51.934;10.330;2023-06-10T04:24:12;8.90;;;5.72;;
24761;SDS011;12865;51.934;10.330;2023-06-10T04:26:58;6.72;;;6.10;;
24761;SDS011;12865;51.934;10.330;2023-06-10T04:29:44;10.55;;;6.07;;
24761;SDS011;12865;51.934;10.330;2023-06-10T04:32:29;12.30;;;6.22;;
24761;SDS011;12865;51.934;10.330;2023-06-10T04:35:15;8.27;;;6.03;;
24761;SDS011;12865;51.934;10.330;2023-06-10T04:38:01;15.52;;;6.53;;
24761;SDS011;12865;51.934;10.330;2023-06-10T04:40:48;12.50;;;6.22;;
24761;SDS011;12865;51.934;10.330;2023-06-10T04:43:33;8.73;;;6.07;;
24761;SDS011;12865;51.934;10.330;2023-06-10T04:46:19;7.82;;;5.85;;
24761;SDS011;12865;51.934;10.330;2023-06-10T04:49:05;11.68;;;6.43;;
24761;SDS011;12865;51.934;10.330;2023-06-10T04:51:50;11.05;;;7.28;;
24761;SDS011;12865;51.934;10.330;2023-06-10T04:54:36;10.05;;;6.22;;
24761;SDS011;12865;51.934;10.330;2023-06-10T04:57:22;8.25;;;5.93;;
24761;SDS011;12865;51.934;10.330;2023-06-10T05:00:08;10.75;;;6.68;;
24761;SDS011;12865;51.934;10.330;2023-06-10T05:02:54;9.68;;;6.15;;
24761;SDS011;12865;51.934;10.330;2023-06-10T05:05:41;7.78;;;6.32;;
24761;SDS011;12865;51.934;10.330;2023-06-10T05:08:27;10.15;;;6.07;;
24761;SDS011;12865;51.934;10.330;2023-06-10T05:11:12;11.63;;;6.97;;
24761;SDS011;12865;51.934;10.330;2023-06-10T05:13:58;12.60;;;6.97;;
24761;SDS011;12865;51.934;10.330;2023-06-10T05:16:44;10.98;;;6.90;;
24761;SDS011;12865;51.934;10.330;2023-06-10T05:19:29;10.88;;;6.57;;
24761;SDS011;12865;51.934;10.330;2023-06-10T05:22:15;9.70;;;6.55;;
24761;SDS011;12865;51.934;10.330;2023-06-10T05:25:01;11.00;;;6.60;;
24761;SDS011;12865;51.934;10.330;2023-06-10T05:27:47;10.02;;;6.43;;
24761;SDS011;12865;51.934;10.330;2023-06-10T05:30:33;12.68;;;7.00;;
24761;SDS011;12865;51.934;10.330;2023-06-10T05:33:18;8.10;;;5.82;;
24761;SDS011;12865;51.934;10.330;2023-06-10T05:36:04;8.98;;;6.30;;
24761;SDS011;12865;51.934;10.330;2023-06-10T05:38:50;10.38;;;6.40;;
24761;SDS011;12865;51.934;10.330;2023-06-10T05:41:36;14.30;;;7.00;;
24761;SDS011;12865;51.934;10.330;2023-06-10T05:44:21;9.52;;;7.47;;
24761;SDS011;12865;51.934;10.330;2023-06-10T05:47:07;11.32;;;7.45;;
24761;SDS011;12865;51.934;10.330;2023-06-10T05:49:53;10.00;;;6.63;;
24761;SDS011;12865;51.934;10.330;2023-06-10T05:52:39;10.20;;;6.18;;
24761;SDS011;12865;51.934;10.330;2023-06-10T05:55:25;9.73;;;6.75;;
24761;SDS011;12865;51.934;10.330;2023-06-10T05:58:12;10.55;;;7.00;;
24761;SDS011;12865;51.934;10.330;2023-06-10T06:03:26;6.85;;;6.10;;
24761;SDS011;12865;51.934;10.330;2023-06-10T06:06:13;9.85;;;7.32;;
24761;SDS011;12865;51.934;10.330;2023-06-10T06:08:59;10.38;;;6.85;;
24761;SDS011;12865;51.934;10.330;2023-06-10T06:11:45;10.40;;;6.90;;
24761;SDS011;12865;51.934;10.330;2023-06-10T06:14:31;13.07;;;6.40;;
24761;SDS011;12865;51.934;10.330;2023-06-10T06:17:17;11.43;;;7.43;;
24761;SDS011;12865;51.934;10.330;2023-06-10T06:20:03;12.27;;;6.68;;
24761;SDS011;12865;51.934;10.330;2023-06-10T06:22:49;12.13;;;6.60;;
24761;SDS011;12865;51.934;10.330;2023-06-10T06:25:34;13.02;;;6.80;;
24761;SDS011;12865;51.934;10.330;2023-06-10T06:28:21;8.85;;;6.10;;
24761;SDS011;12865;51.934;10.330;2023-06-10T06:31:07;10.77;;;6.97;;
24761;SDS011;12865;51.934;10.330;2023-06-10T06:33:53;12.30;;;7.25;;
24761;SDS011;12865;51.934;10.330;2023-06-10T06:36:39;9.35;;;6.85;;
24761;SDS011;12865;51.934;10.330;2023-06-10T06:39:24;15.02;;;7.10;;
24761;SDS011;12865;51.934;10.330;2023-06-10T06:42:10;11.23;;;7.07;;
24761;SDS011;12865;51.934;10.330;2023-06-10T06:44:56;11.70;;;7.22;;
24761;SDS011;12865;51.934;10.330;2023-06-10T06:47:41;10.55;;;6.30;;
24761;SDS011;12865;51.934;10.330;2023-06-10T06:50:28;10.35;;;6.55;;
24761;SDS011;12865;51.934;10.330;2023-06-10T06:53:13;12.60;;;6.80;;
24761;SDS011;12865;51.934;10.330;2023-06-10T06:55:59;12.00;;;6.60;;
24761;SDS011;12865;51.934;10.330;2023-06-10T06:58:45;8.55;;;6.30;;
24761;SDS011;12865;51.934;10.330;2023-06-10T07:01:32;8.30;;;6.43;;
24761;SDS011;12865;51.934;10.330;2023-06-10T07:04:18;12.32;;;6.78;;
24761;SDS011;12865;51.934;10.330;2023-06-10T07:07:07;10.48;;;6.30;;
24761;SDS011;12865;51.934;10.330;2023-06-10T07:12:39;9.52;;;6.15;;
24761;SDS011;12865;51.934;10.330;2023-06-10T07:15:25;7.97;;;6.10;;
24761;SDS011;12865;51.934;10.330;2023-06-10T07:18:11;7.47;;;6.00;;
24761;SDS011;12865;51.934;10.330;2023-06-10T07:20:56;10.13;;;6.22;;
24761;SDS011;12865;51.934;10.330;2023-06-10T07:23:42;13.95;;;6.25;;
24761;SDS011;12865;51.934;10.330;2023-06-10T07:26:28;9.82;;;5.70;;
24761;SDS011;12865;51.934;10.330;2023-06-10T07:29:14;8.52;;;5.38;;
24761;SDS011;12865;51.934;10.330;2023-06-10T07:31:59;10.25;;;5.68;;
24761;SDS011;12865;51.934;10.330;2023-06-10T07:34:45;8.15;;;5.38;;
24761;SDS011;12865;51.934;10.330;2023-06-10T07:37:31;8.75;;;6.30;;
24761;SDS011;12865;51.934;10.330;2023-06-10T07:40:16;11.50;;;6.03;;
24761;SDS011;12865;51.934;10.330;2023-06-10T07:43:02;7.22;;;5.82;;
24761;SDS011;12865;51.934;10.330;2023-06-10T07:45:48;7.63;;;5.75;;
24761;SDS011;12865;51.934;10.330;2023-06-10T07:48:33;11.65;;;6.22;;
24761;SDS011;12865;51.934;10.330;2023-06-10T07:51:19;11.02;;;6.18;;
24761;SDS011;12865;51.934;10.330;2023-06-10T07:54:06;6.13;;;5.50;;
24761;SDS011;12865;51.934;10.330;2023-06-10T07:56:51;7.75;;;5.50;;
24761;SDS011;12865;51.934;10.330;2023-06-10T07:59:38;6.85;;;5.50;;
24761;SDS011;12865;51.934;10.330;2023-06-10T08:02:24;8.45;;;5.18;;
24761;SDS011;12865;51.934;10.330;2023-06-10T08:05:10;7.18;;;5.40;;
24761;SDS011;12865;51.934;10.330;2023-06-10T08:07:55;14.10;;;6.22;;
24761;SDS011;12865;51.934;10.330;2023-06-10T08:10:41;6.85;;;5.50;;
24761;SDS011;12865;51.934;10.330;2023-06-10T08:13:27;7.43;;;5.88;;
24761;SDS011;12865;51.934;10.330;2023-06-10T08:16:12;8.90;;;5.47;;
24761;SDS011;12865;51.934;10.330;2023-06-10T08:18:58;9.52;;;6.20;;
24761;SDS011;12865;51.934;10.330;2023-06-10T08:21:43;7.43;;;5.68;;
24761;SDS011;12865;51.934;10.330;2023-06-10T08:24:29;8.25;;;5.80;;
24761;SDS011;12865;51.934;10.330;2023-06-10T08:27:15;8.32;;;5.72;;
24761;SDS011;12865;51.934;10.330;2023-06-10T08:30:01;8.55;;;5.88;;
24761;SDS011;12865;51.934;10.330;2023-06-10T08:32:47;11.38;;;5.90;;
24761;SDS011;12865;51.934;10.330;2023-06-10T08:35:33;9.38;;;5.88;;
24761;SDS011;12865;51.934;10.330;2023-06-10T08:38:18;8.93;;;6.05;;
24761;SDS011;12865;51.934;10.330;2023-06-10T08:41:04;6.75;;;5.55;;
24761;SDS011;12865;51.934;10.330;2023-06-10T08:44:16;10.30;;;6.07;;
24761;SDS011;12865;51.934;10.330;2023-06-10T08:46:58;7.43;;;5.57;;
24761;SDS011;12865;51.934;10.330;2023-06-10T08:49:46;8.52;;;5.82;;
24761;SDS011;12865;51.934;10.330;2023-06-10T08:52:34;9.15;;;5.72;;
24761;SDS011;12865;51.934;10.330;2023-06-10T08:55:27;11.13;;;6.43;;
24761;SDS011;12865;51.934;10.330;2023-06-10T08:58:18;10.02;;;6.47;;
24761;SDS011;12865;51.934;10.330;2023-06-10T09:01:05;11.13;;;6.25;;
24761;SDS011;12865;51.934;10.330;2023-06-10T09:03:51;10.52;;;6.43;;
24761;SDS011;12865;51.934;10.330;2023-06-10T09:06:37;9.32;;;6.30;;
24761;SDS011;12865;51.934;10.330;2023-06-10T09:09:25;10.15;;;6.38;;
24761;SDS011;12865;51.934;10.330;2023-06-10T09:12:13;8.10;;;6.03;;
24761;SDS011;12865;51.934;10.330;2023-06-10T09:15:00;10.80;;;6.07;;
24761;SDS011;12865;51.934;10.330;2023-06-10T09:17:46;9.27;;;6.30;;
24761;SDS011;12865;51.934;10.330;2023-06-10T09:20:32;13.60;;;7.43;;
24761;SDS011;12865;51.934;10.330;2023-06-10T09:23:17;9.52;;;6.05;;
24761;SDS011;12865;51.934;10.330;2023-06-10T09:26:07;8.27;;;6.20;;
24761;SDS011;12865;51.934;10.330;2023-06-10T09:28:57;9.35;;;6.70;;
24761;SDS011;12865;51.934;10.330;2023-06-10T09:31:48;10.07;;;7.20;;
24761;SDS011;12865;51.934;10.330;2023-06-10T09:34:34;9.60;;;6.45;;
24761;SDS011;12865;51.934;10.330;2023-06-10T09:37:23;11.32;;;6.95;;
24761;SDS011;12865;51.934;10.330;2023-06-10T09:40:09;11.00;;;6.60;;
24761;SDS011;12865;51.934;10.330;2023-06-10T09:42:56;7.03;;;6.32;;
24761;SDS011;12865;51.934;10.330;2023-06-10T09:45:44;9.45;;;6.43;;
24761;SDS011;12865;51.934;10.330;2023-06-10T09:48:29;9.43;;;6.45;;
24761;SDS011;12865;51.934;10.330;2023-06-10T09:51:19;7.80;;;6.55;;
24761;SDS011;12865;51.934;10.330;2023-06-10T09:54:05;11.63;;;6.18;;
24761;SDS011;12865;51.934;10.330;2023-06-10T09:56:51;12.65;;;7.10;;
24761;SDS011;12865;51.934;10.330;2023-06-10T09:59:37;13.32;;;6.70;;
24761;SDS011;12865;51.934;10.330;2023-06-10T10:02:23;10.77;;;7.03;;
24761;SDS011;12865;51.934;10.330;2023-06-10T10:05:09;10.68;;;7.28;;
24761;SDS011;12865;51.934;10.330;2023-06-10T10:07:55;10.45;;;7.32;;
24761;SDS011;12865;51.934;10.330;2023-06-10T10:10:41;7.43;;;6.50;;
24761;SDS011;12865;51.934;10.330;2023-06-10T10:13:27;12.18;;;7.95;;
24761;SDS011;12865;51.934;10.330;2023-06-10T10:16:17;9.93;;;7.53;;
24761;SDS011;12865;51.934;10.330;2023-06-10T10:19:12;7.97;;;7.20;;
24761;SDS011;12865;51.934;10.330;2023-06-10T10:22:10;10.98;;;7.60;;
24761;SDS011;12865;51.934;10.330;2023-06-10T10:25:05;8.13;;;7.40;;
24761;SDS011;12865;51.934;10.330;2023-06-10T10:28:01;11.13;;;7.70;;
24761;SDS011;12865;51.934;10.330;2023-06-10T10:30:54;8.32;;;6.93;;
24761;SDS011;12865;51.934;10.330;2023-06-10T10:34:00;9.13;;;6.85;;
24761;SDS011;12865;51.934;10.330;2023-06-10T10:36:50;9.82;;;7.03;;
24761;SDS011;12865;51.934;10.330;2023-06-10T10:39:36;8.85;;;6.57;;
24761;SDS011;12865;51.934;10.330;2023-06-10T10:42:22;8.82;;;6.68;;
24761;SDS011;12865;51.934;10.330;2023-06-10T10:45:08;9.68;;;7.20;;
24761;SDS011;12865;51.934;10.330;2023-06-10T10:47:55;8.85;;;7.18;;
24761;SDS011;12865;51.934;10.330;2023-06-10T10:50:41;8.05;;;7.25;;
24761;SDS011;12865;51.934;10.330;2023-06-10T10:53:27;9.02;;;7.18;;
24761;SDS011;12865;51.934;10.330;2023-06-10T10:56:16;9.50;;;7.40;;
24761;SDS011;12865;51.934;10.330;2023-06-10T10:59:05;8.20;;;7.40;;
24761;SDS011;12865;51.934;10.330;2023-06-10T11:01:52;8.80;;;7.05;;
24761;SDS011;12865;51.934;10.330;2023-06-10T11:04:38;8.27;;;7.47;;
24761;SDS011;12865;51.934;10.330;2023-06-10T11:07:30;11.23;;;7.38;;
24761;SDS011;12865;51.934;10.330;2023-06-10T11:10:17;9.07;;;6.90;;
24761;SDS011;12865;51.934;10.330;2023-06-10T11:13:13;8.98;;;7.45;;
24761;SDS011;12865;51.934;10.330;2023-06-10T11:16:00;8.48;;;7.68;;
24761;SDS011;12865;51.934;10.330;2023-06-10T11:18:49;12.07;;;8.07;;
24761;SDS011;12865;51.934;10.330;2023-06-10T11:21:58;11.57;;;7.68;;
24761;SDS011;12865;51.934;10.330;2023-06-10T11:24:49;9.77;;;7.43;;
24761;SDS011;12865;51.934;10.330;2023-06-10T11:27:38;8.93;;;7.70;;
24761;SDS011;12865;51.934;10.330;2023-06-10T11:30:27;10.25;;;7.55;;
24761;SDS011;12865;51.934;10.330;2023-06-10T11:33:20;7.93;;;7.13;;
24761;SDS011;12865;51.934;10.330;2023-06-10T11:36:06;14.18;;;7.90;;
24761;SDS011;12865;51.934;10.330;2023-06-10T11:38:54;10.50;;;7.63;;
24761;SDS011;12865;51.934;10.330;2023-06-10T11:41:42;8.50;;;6.68;;
24761;SDS011;12865;51.934;10.330;2023-06-10T11:44:28;9.98;;;6.57;;
24761;SDS011;12865;51.934;10.330;2023-06-10T11:47:14;8.15;;;7.35;;
24761;SDS011;12865;51.934;10.330;2023-06-10T11:50:00;8.73;;;7.28;;
24761;SDS011;12865;51.934;10.330;2023-06-10T11:52:45;8.77;;;6.72;;
24761;SDS011;12865;51.934;10.330;2023-06-10T11:55:41;7.10;;;6.40;;
24761;SDS011;12865;51.934;10.330;2023-06-10T11:58:28;7.55;;;6.03;;
24761;SDS011;12865;51.934;10.330;2023-06-10T12:01:19;9.32;;;6.45;;
24761;SDS011;12865;51.934;10.330;2023-06-10T12:04:07;7.22;;;6.00;;
24761;SDS011;12865;51.934;10.330;2023-06-10T12:06:57;7.20;;;5.65;;
24761;SDS011;12865;51.934;10.330;2023-06-10T12:09:42;8.25;;;6.40;;
24761;SDS011;12865;51.934;10.330;2023-06-10T12:12:28;11.38;;;6.50;;
24761;SDS011;12865;51.934;10.330;2023-06-10T12:15:23;8.02;;;6.40;;
24761;SDS011;12865;51.934;10.330;2023-06-10T12:18:20;6.97;;;6.07;;
24761;SDS011;12865;51.934;10.330;2023-06-10T12:21:17;7.47;;;6.53;;
24761;SDS011;12865;51.934;10.330;2023-06-10T12:24:10;7.55;;;6.75;;
24761;SDS011;12865;51.934;10.330;2023-06-10T12:26:56;6.80;;;6.20;;
24761;SDS011;12865;51.934;10.330;2023-06-10T12:29:50;9.05;;;6.78;;
24761;SDS011;12865;51.934;10.330;2023-06-10T12:35:25;7.38;;;5.90;;
24761;SDS011;12865;51.934;10.330;2023-06-10T12:38:12;6.43;;;5.78;;
24761;SDS011;12865;51.934;10.330;2023-06-10T12:41:01;6.50;;;5.78;;
24761;SDS011;12865;51.934;10.330;2023-06-10T12:43:49;8.50;;;6.15;;
24761;SDS011;12865;51.934;10.330;2023-06-10T12:46:38;8.57;;;5.78;;
24761;SDS011;12865;51.934;10.330;2023-06-10T12:49:23;8.68;;;6.53;;
24761;SDS011;12865;51.934;10.330;2023-06-10T12:52:10;8.57;;;6.05;;
24761;SDS011;12865;51.934;10.330;2023-06-10T12:54:56;5.60;;;5.10;;
24761;SDS011;12865;51.934;10.330;2023-06-10T12:57:51;6.60;;;5.93;;
24761;SDS011;12865;51.934;10.330;2023-06-10T13:00:37;6.57;;;5.45;;
24761;SDS011;12865;51.934;10.330;2023-06-10T13:03:23;6.75;;;5.97;;
24761;SDS011;12865;51.934;10.330;2023-06-10T13:06:08;6.53;;;5.53;;
24761;SDS011;12865;51.934;10.330;2023-06-10T13:08:54;6.30;;;5.57;;
24761;SDS011;12865;51.934;10.330;2023-06-10T13:11:40;6.38;;;5.78;;
24761;SDS011;12865;51.934;10.330;2023-06-10T13:14:26;6.05;;;5.32;;
24761;SDS011;12865;51.934;10.330;2023-06-10T13:17:14;6.32;;;4.82;;
24761;SDS011;12865;51.934;10.330;2023-06-10T13:19:59;5.32;;;4.78;;
24761;SDS011;12865;51.934;10.330;2023-06-10T13:22:45;6.15;;;4.72;;
24761;SDS011;12865;51.934;10.330;2023-06-10T13:25:31;5.90;;;5.32;;
24761;SDS011;12865;51.934;10.330;2023-06-10T13:28:17;6.82;;;5.63;;
24761;SDS011;12865;51.934;10.330;2023-06-10T13:31:03;5.57;;;5.07;;
24761;SDS011;12865;51.934;10.330;2023-06-10T13:33:49;7.85;;;5.03;;
24761;SDS011;12865;51.934;10.330;2023-06-10T13:36:34;6.10;;;5.53;;
24761;SDS011;12865;51.934;10.330;2023-06-10T13:39:20;8.13;;;5.45;;
24761;SDS011;12865;51.934;10.330;2023-06-10T13:42:06;6.55;;;5.20;;
24761;SDS011;12865;51.934;10.330;2023-06-10T13:44:53;8.98;;;5.82;;
24761;SDS011;12865;51.934;10.330;2023-06-10T13:47:38;8.07;;;5.63;;
24761;SDS011;12865;51.934;10.330;2023-06-10T13:50:24;9.00;;;5.47;;
24761;SDS011;12865;51.934;10.330;2023-06-10T13:53:10;6.13;;;5.63;;
24761;SDS011;12865;51.934;10.330;2023-06-10T13:55:56;6.47;;;5.15;;
24761;SDS011;12865;51.934;10.330;2023-06-10T13:58:41;8.38;;;5.30;;
24761;SDS011;12865;51.934;10.330;2023-06-10T14:01:28;6.07;;;5.30;;
24761;SDS011;12865;51.934;10.330;2023-06-10T14:04:13;6.78;;;5.65;;
24761;SDS011;12865;51.934;10.330;2023-06-10T14:06:59;6.13;;;5.53;;
24761;SDS011;12865;51.934;10.330;2023-06-10T14:09:45;6.90;;;5.70;;
24761;SDS011;12865;51.934;10.330;2023-06-10T14:12:30;6.82;;;6.05;;
24761;SDS011;12865;51.934;10.330;2023-06-10T14:15:16;6.30;;;5.68;;
24761;SDS011;12865;51.934;10.330;2023-06-10T14:18:02;5.55;;;5.05;;
24761;SDS011;12865;51.934;10.330;2023-06-10T14:20:48;6.85;;;5.22;;
24761;SDS011;12865;51.934;10.330;2023-06-10T14:23:33;6.07;;;5.35;;
24761;SDS011;12865;51.934;10.330;2023-06-10T14:26:19;7.07;;;5.80;;
24761;SDS011;12865;51.934;10.330;2023-06-10T14:29:07;7.10;;;5.22;;
24761;SDS011;12865;51.934;10.330;2023-06-10T14:31:54;5.50;;;5.00;;
24761;SDS011;12865;51.934;10.330;2023-06-10T14:34:40;6.78;;;5.70;;
24761;SDS011;12865;51.934;10.330;2023-06-10T14:37:27;7.10;;;5.60;;
24761;SDS011;12865;51.934;10.330;2023-06-10T14:40:13;5.45;;;4.95;;
24761;SDS011;12865;51.934;10.330;2023-06-10T14:42:58;6.07;;;5.50;;
24761;SDS011;12865;51.934;10.330;2023-06-10T14:45:45;6.43;;;5.05;;
24761;SDS011;12865;51.934;10.330;2023-06-10T14:48:31;7.40;;;5.90;;
24761;SDS011;12865;51.934;10.330;2023-06-10T14:51:17;6.13;;;5.05;;
24761;SDS011;12865;51.934;10.330;2023-06-10T14:54:03;5.55;;;5.10;;
24761;SDS011;12865;51.934;10.330;2023-06-10T14:56:49;7.35;;;5.47;;
24761;SDS011;12865;51.934;10.330;2023-06-10T14:59:35;6.43;;;5.82;;
24761;SDS011;12865;51.934;10.330;2023-06-10T15:02:20;6.63;;;5.93;;
24761;SDS011;12865;51.934;10.330;2023-06-10T15:05:06;8.30;;;6.00;;
24761;SDS011;12865;51.934;10.330;2023-06-10T15:07:52;7.07;;;5.53;;
24761;SDS011;12865;51.934;10.330;2023-06-10T15:10:38;6.70;;;6.03;;
24761;SDS011;12865;51.934;10.330;2023-06-10T15:13:24;6.47;;;5.75;;
24761;SDS011;12865;51.934;10.330;2023-06-10T15:16:09;5.72;;;5.10;;
24761;SDS011;12865;51.934;10.330;2023-06-10T15:18:55;6.55;;;5.95;;
24761;SDS011;12865;51.934;10.330;2023-06-10T15:21:41;6.57;;;5.07;;
24761;SDS011;12865;51.934;10.330;2023-06-10T15:24:26;5.95;;;5.45;;
24761;SDS011;12865;51.934;10.330;2023-06-10T15:27:12;6.13;;;5.50;;
24761;SDS011;12865;51.934;10.330;2023-06-10T15:29:58;4.68;;;4.28;;
24761;SDS011;12865;51.934;10.330;2023-06-10T15:32:43;6.55;;;4.82;;
24761;SDS011;12865;51.934;10.330;2023-06-10T15:35:29;6.57;;;4.35;;
24761;SDS011;12865;51.934;10.330;2023-06-10T15:38:15;5.82;;;5.25;;
24761;SDS011;12865;51.934;10.330;2023-06-10T15:41:00;5.72;;;5.30;;
24761;SDS011;12865;51.934;10.330;2023-06-10T15:43:46;5.63;;;4.75;;
24761;SDS011;12865;51.934;10.330;2023-06-10T15:46:32;6.57;;;4.05;;
24761;SDS011;12865;51.934;10.330;2023-06-10T15:49:19;7.35;;;4.13;;
24761;SDS011;12865;51.934;10.330;2023-06-10T15:52:05;4.72;;;4.30;;
24761;SDS011;12865;51.934;10.330;2023-06-10T15:54:51;5.85;;;4.50;;
24761;SDS011;12865;51.934;10.330;2023-06-10T15:57:36;4.53;;;4.22;;
24761;SDS011;12865;51.934;10.330;2023-06-10T16:00:22;5.45;;;4.15;;
24761;SDS011;12865;51.934;10.330;2023-06-10T16:03:08;6.88;;;5.03;;
24761;SDS011;12865;51.934;10.330;2023-06-10T16:05:54;7.70;;;5.38;;
24761;SDS011;12865;51.934;10.330;2023-06-10T16:08:39;5.72;;;5.07;;
24761;SDS011;12865;51.934;10.330;2023-06-10T16:11:25;10.43;;;5.65;;
24761;SDS011;12865;51.934;10.330;2023-06-10T16:14:11;9.07;;;6.45;;
24761;SDS011;12865;51.934;10.330;2023-06-10T16:16:57;8.70;;;6.45;;
24761;SDS011;12865;51.934;10.330;2023-06-10T16:19:46;9.23;;;6.28;;
24761;SDS011;12865;51.934;10.330;2023-06-10T16:22:31;6.65;;;5.93;;
24761;SDS011;12865;51.934;10.330;2023-06-10T16:25:17;6.82;;;6.10;;
24761;SDS011;12865;51.934;10.330;2023-06-10T16:28:03;11.15;;;6.40;;
24761;SDS011;12865;51.934;10.330;2023-06-10T16:30:50;6.85;;;6.15;;
24761;SDS011;12865;51.934;10.330;2023-06-10T16:33:35;7.55;;;5.20;;
24761;SDS011;12865;51.934;10.330;2023-06-10T16:36:22;6.65;;;5.80;;
24761;SDS011;12865;51.934;10.330;2023-06-10T16:39:07;6.15;;;5.28;;
24761;SDS011;12865;51.934;10.330;2023-06-10T16:41:53;6.50;;;5.32;;
24761;SDS011;12865;51.934;10.330;2023-06-10T16:44:39;6.05;;;4.57;;